Time;durP1;ratioP1;P1;durP2;ratioP2;P2;SDS_P1;SDS_P2;PMS_P1;PMS_P2;Temp;Humidity;BMP_temperature;BMP_pressure;BME280_temperature;BME280_humidity;BME280_pressure;Samples;Min_cycle;Max_cycle;Signal;HPM_P1;HPM_P2
2023/11/21 00:00:21;;;;;;;6.82;4.90;;;;;;;6.39;100.00;101103.78;5055432;28;20253;-87
2023/11/21 00:02:47;;;;;;;6.80;4.65;;;;;;;6.38;100.00;101094.25;5042283;28;20045;-87
2023/11/21 00:05:16;;;;;;;6.65;4.97;;;;;;;6.39;100.00;101096.84;5037048;28;20092;-87
2023/11/21 00:07:42;;;;;;;4.97;4.50;;;;;;;6.40;100.00;101098.53;5038727;28;20264;-87
2023/11/21 00:10:09;;;;;;;7.95;5.00;;;;;;;6.41;100.00;101097.66;5044968;28;20099;-87
2023/11/21 00:12:35;;;;;;;7.03;4.93;;;;;;;6.43;100.00;101105.44;5049466;28;20240;-87
2023/11/21 00:15:01;;;;;;;8.13;4.78;;;;;;;6.46;100.00;101102.78;5055318;28;20033;-87
2023/11/21 00:17:27;;;;;;;4.75;4.30;;;;;;;6.48;100.00;101107.06;5045478;28;20102;-87
2023/11/21 00:19:52;;;;;;;7.35;4.70;;;;;;;6.52;100.00;101106.13;5036775;28;20271;-87
2023/11/21 00:22:18;;;;;;;5.63;4.32;;;;;;;6.58;100.00;101099.94;5036181;28;20272;-87
2023/11/21 00:24:43;;;;;;;6.20;5.22;;;;;;;6.64;100.00;101105.03;5044847;28;20033;-87
2023/11/21 00:27:09;;;;;;;11.13;5.53;;;;;;;6.66;100.00;101098.03;5037444;28;20112;-87
2023/11/21 00:29:34;;;;;;;5.22;4.72;;;;;;;6.72;100.00;101102.25;5038749;28;20029;-87
2023/11/21 00:31:59;;;;;;;9.32;5.95;;;;;;;6.73;100.00;101110.03;5056198;28;20360;-87
2023/11/21 00:34:25;;;;;;;7.55;5.40;;;;;;;6.77;100.00;101107.34;5054639;28;20045;-87
2023/11/21 00:36:50;;;;;;;7.40;5.18;;;;;;;6.83;100.00;101102.03;5054444;28;20105;-87
2023/11/21 00:39:16;;;;;;;5.63;4.85;;;;;;;6.87;100.00;101107.13;5038772;28;20029;-87
2023/11/21 00:41:41;;;;;;;5.60;5.10;;;;;;;6.90;100.00;101101.88;5036365;28;20045;-87
2023/11/21 00:44:07;;;;;;;5.93;4.75;;;;;;;6.95;100.00;101108.72;5046455;28;20036;-87
2023/11/21 00:46:35;;;;;;;5.80;4.97;;;;;;;6.97;100.00;101114.75;5052480;28;20473;-87
2023/11/21 00:49:00;;;;;;;5.93;5.43;;;;;;;7.00;100.00;101107.72;5035405;28;20037;-87
2023/11/21 00:51:26;;;;;;;7.00;5.30;;;;;;;7.02;100.00;101111.19;5047617;28;20041;-87
2023/11/21 00:53:51;;;;;;;6.78;4.97;;;;;;;7.05;100.00;101116.31;5047360;28;20064;-87
2023/11/21 00:56:16;;;;;;;6.82;5.95;;;;;;;7.10;100.00;101118.81;5040744;28;20048;-87
2023/11/21 00:58:49;;;;;;;8.38;5.88;;;;;;;7.10;100.00;101117.06;5052613;28;20033;-87
2023/11/21 01:01:15;;;;;;;10.30;5.80;;;;;;;7.12;100.00;101114.44;5045211;28;20021;-87
2023/11/21 01:03:40;;;;;;;11.40;5.50;;;;;;;7.14;100.00;101117.88;5055243;28;20029;-87
2023/11/21 01:06:07;;;;;;;8.77;5.80;;;;;;;7.16;100.00;101128.25;5038920;28;20029;-87
2023/11/21 01:08:33;;;;;;;6.82;5.50;;;;;;;7.18;100.00;101126.47;5034307;28;20044;-87
2023/11/21 01:10:58;;;;;;;8.80;5.30;;;;;;;7.20;100.00;101122.94;5036357;28;20036;-87
2023/11/21 01:13:28;;;;;;;6.07;5.10;;;;;;;7.23;100.00;101128.06;5036159;28;20037;-87
2023/11/21 01:15:53;;;;;;;6.68;5.53;;;;;;;7.24;100.00;101129.81;5041126;28;20037;-87
2023/11/21 01:18:18;;;;;;;7.95;5.60;;;;;;;7.25;100.00;101122.84;5035081;28;20033;-87
2023/11/21 01:20:46;;;;;;;6.18;4.88;;;;;;;7.27;100.00;101136.69;5035400;28;20036;-87
2023/11/21 01:23:12;;;;;;;8.88;5.65;;;;;;;7.26;100.00;101140.19;5052033;28;20287;-87
2023/11/21 01:25:38;;;;;;;9.25;5.53;;;;;;;7.26;100.00;101140.19;5052564;28;20524;-87
2023/11/21 01:28:03;;;;;;;8.68;5.22;;;;;;;7.26;100.00;101138.44;5042466;28;20332;-87
2023/11/21 01:30:28;;;;;;;8.00;5.93;;;;;;;7.29;100.00;101154.00;5046182;28;20070;-87
2023/11/21 01:32:54;;;;;;;6.05;5.50;;;;;;;7.29;100.00;101151.41;5041254;28;20079;-87
2023/11/21 01:35:19;;;;;;;11.60;6.13;;;;;;;7.30;100.00;101147.91;5040546;28;20039;-87
2023/11/21 01:37:44;;;;;;;6.25;5.63;;;;;;;7.32;100.00;101155.69;5042483;28;20045;-87
2023/11/21 01:40:13;;;;;;;10.27;6.45;;;;;;;7.33;100.00;101165.22;5043515;28;20127;-87
2023/11/21 01:42:39;;;;;;;7.85;5.43;;;;;;;7.34;100.00;101166.91;5049220;28;20052;-87
2023/11/21 01:45:05;;;;;;;8.75;5.55;;;;;;;7.36;100.00;101165.13;5053222;28;20041;-87
2023/11/21 01:47:32;;;;;;;7.88;4.88;;;;;;;7.39;100.00;101172.03;5052262;28;20054;-87
2023/11/21 01:49:58;;;;;;;6.50;5.15;;;;;;;7.41;100.00;101170.25;5054445;28;20048;-87
2023/11/21 01:52:24;;;;;;;5.28;4.88;;;;;;;7.45;100.00;101174.50;5049530;28;20068;-87
2023/11/21 01:54:49;;;;;;;5.07;4.63;;;;;;;7.48;100.00;101182.25;5050456;28;20040;-87
2023/11/21 01:57:15;;;;;;;5.07;4.60;;;;;;;7.52;100.00;101180.44;5035678;28;20413;-88
2023/11/21 01:59:42;;;;;;;5.88;4.68;;;;;;;7.53;100.00;101187.34;5043876;28;20067;-87
2023/11/21 02:05:30;;;;;;;6.88;5.32;;;;;;;7.54;100.00;101192.53;4975714;28;20448;-87
2023/11/21 02:07:56;;;;;;;7.97;5.82;;;;;;;7.55;100.00;101188.16;5023215;28;20069;-87
2023/11/21 02:10:22;;;;;;;6.00;5.40;;;;;;;7.55;100.00;101188.16;5033504;28;20032;-87
2023/11/21 02:12:51;;;;;;;5.55;5.05;;;;;;;7.54;100.00;101184.72;5013990;28;20063;-87
2023/11/21 02:15:20;;;;;;;6.22;5.45;;;;;;;7.54;100.00;101181.25;5017046;28;20068;-87
2023/11/21 02:17:53;;;;;;;5.93;5.30;;;;;;;7.54;100.00;101189.09;5016437;28;20068;-87
2023/11/21 02:20:20;;;;;;;6.90;5.38;;;;;;;7.55;100.00;101188.16;5016457;28;20089;-87
2023/11/21 02:22:52;;;;;;;6.93;5.15;;;;;;;7.55;100.00;101185.56;5014693;28;20042;-87
2023/11/21 02:25:18;;;;;;;5.05;4.55;;;;;;;7.54;100.00;101189.94;5014687;28;20076;-87
2023/11/21 02:27:47;;;;;;;7.60;5.22;;;;;;;7.55;100.00;101196.00;5029880;28;20392;-87
2023/11/21 02:30:14;;;;;;;7.15;5.30;;;;;;;7.54;100.00;101189.09;5033624;28;20083;-87
2023/11/21 02:32:42;;;;;;;7.07;5.13;;;;;;;7.55;100.00;101193.38;5019119;28;20046;-87
2023/11/21 02:35:08;;;;;;;6.60;5.53;;;;;;;7.54;100.00;101191.69;5016064;28;20100;-87
2023/11/21 02:37:35;;;;;;;5.38;4.95;;;;;;;7.54;100.00;101192.53;5025669;28;20206;-87
2023/11/21 02:40:02;;;;;;;8.15;4.82;;;;;;;7.55;100.00;101196.00;5034847;28;20064;-87
2023/11/21 02:42:27;;;;;;;6.72;4.75;;;;;;;7.56;100.00;101195.97;5022467;28;20037;-87
2023/11/21 02:44:53;;;;;;;6.78;5.57;;;;;;;7.56;100.00;101195.13;5030030;28;20040;-87
2023/11/21 02:47:18;;;;;;;7.60;5.70;;;;;;;7.58;100.00;101203.75;5021855;28;20065;-88
2023/11/21 02:49:43;;;;;;;6.63;4.80;;;;;;;7.57;100.00;101205.50;5023389;28;20034;-87
2023/11/21 02:52:09;;;;;;;5.93;4.85;;;;;;;7.61;100.00;101199.34;5019686;28;20100;-87
2023/11/21 02:54:36;;;;;;;5.57;5.07;;;;;;;7.62;100.00;101208.88;5033591;28;20084;-87
2023/11/21 02:57:02;;;;;;;6.05;4.80;;;;;;;7.66;100.00;101210.50;5016054;28;20063;-87
2023/11/21 02:59:27;;;;;;;6.07;4.72;;;;;;;7.68;100.00;101205.28;5030227;28;20056;-87
2023/11/21 03:01:53;;;;;;;5.63;4.93;;;;;;;7.69;100.00;101207.84;5022176;28;20037;-87
2023/11/21 03:04:19;;;;;;;5.47;4.70;;;;;;;7.72;100.00;101206.91;5013051;28;20076;-87
2023/11/21 03:06:45;;;;;;;6.68;4.57;;;;;;;7.73;100.00;101211.25;5014273;28;20029;-87
2023/11/21 03:09:12;;;;;;;8.43;5.10;;;;;;;7.75;100.00;101211.19;5015768;28;20033;-87
2023/11/21 03:11:37;;;;;;;6.03;4.90;;;;;;;7.77;100.00;101212.88;5023016;28;20271;-87
2023/11/21 03:14:03;;;;;;;5.50;4.78;;;;;;;7.78;100.00;101214.56;5019280;28;20058;-87
2023/11/21 03:16:28;;;;;;;9.48;5.47;;;;;;;7.79;100.00;101216.31;5013866;28;20037;-87
2023/11/21 03:18:54;;;;;;;5.80;4.75;;;;;;;7.80;100.00;101217.16;5017312;28;20033;-87
2023/11/21 03:21:19;;;;;;;7.05;4.95;;;;;;;7.81;100.00;101211.06;5024178;28;20044;-87
2023/11/21 03:23:45;;;;;;;5.90;5.00;;;;;;;7.83;100.00;101215.34;5026696;28;20033;-87
2023/11/21 03:26:13;;;;;;;5.60;4.80;;;;;;;7.85;100.00;101215.31;5017735;28;20041;-87
2023/11/21 03:28:39;;;;;;;5.80;5.20;;;;;;;7.86;100.00;101219.63;5017509;28;20050;-87
2023/11/21 03:31:06;;;;;;;10.27;5.25;;;;;;;7.88;100.00;101218.69;5021458;28;20029;-87
2023/11/21 03:33:32;;;;;;;6.57;5.32;;;;;;;7.90;100.00;101230.84;5031165;28;20048;-87
2023/11/21 03:35:57;;;;;;;10.63;5.40;;;;;;;7.89;100.00;101232.59;5027093;28;20100;-87
2023/11/21 03:38:23;;;;;;;9.05;5.57;;;;;;;7.91;100.00;101235.16;5035517;28;20060;-87
2023/11/21 03:40:48;;;;;;;8.60;5.03;;;;;;;7.93;100.00;101241.19;5019890;28;20042;-87
2023/11/21 03:43:14;;;;;;;6.80;4.75;;;;;;;7.94;100.00;101242.94;5020431;28;20057;-87
2023/11/21 03:45:40;;;;;;;5.35;4.80;;;;;;;7.95;100.00;101242.00;5036786;28;20235;-87
2023/11/21 03:48:06;;;;;;;7.05;4.85;;;;;;;7.98;100.00;101252.38;5037231;28;20041;-87
2023/11/21 03:50:32;;;;;;;5.45;4.95;;;;;;;8.00;100.00;101253.19;5036540;28;20056;-88
2023/11/21 03:52:57;;;;;;;6.18;5.00;;;;;;;8.01;100.00;101249.72;5036922;28;20061;-87
2023/11/21 03:55:24;;;;;;;5.25;4.75;;;;;;;8.01;100.00;101260.16;5032733;28;20109;-87
2023/11/21 03:57:51;;;;;;;6.95;4.90;;;;;;;8.03;100.00;101264.44;5016622;28;20053;-87
2023/11/21 04:00:17;;;;;;;6.78;4.85;;;;;;;8.06;100.00;101264.34;5017121;28;20037;-87
2023/11/21 04:02:42;;;;;;;6.05;4.53;;;;;;;8.07;100.00;101254.78;5016609;28;20041;-87
2023/11/21 04:05:09;;;;;;;5.15;4.28;;;;;;;8.10;100.00;101264.31;5016961;28;20100;-87
2023/11/21 04:07:34;;;;;;;5.13;4.70;;;;;;;8.11;100.00;101261.63;5016244;28;20041;-87
2023/11/21 04:10:00;;;;;;;10.32;5.65;;;;;;;8.11;100.00;101272.06;5016917;28;20025;-87
2023/11/21 04:12:25;;;;;;;6.97;5.05;;;;;;;8.12;100.00;101270.34;5016958;28;20029;-87
2023/11/21 04:14:51;;;;;;;7.25;5.32;;;;;;;8.12;100.00;101265.97;5016199;28;20045;-87
2023/11/21 04:17:19;;;;;;;12.68;5.13;;;;;;;8.15;100.00;101272.84;5017065;28;20057;-87
2023/11/21 04:19:45;;;;;;;7.78;4.72;;;;;;;8.16;100.00;101269.34;5016396;28;20044;-87
2023/11/21 04:22:11;;;;;;;5.20;4.70;;;;;;;8.18;100.00;101281.47;5016837;28;20033;-87
2023/11/21 04:24:37;;;;;;;5.38;4.88;;;;;;;8.20;100.00;101291.88;5015899;28;20095;-87
2023/11/21 04:27:03;;;;;;;8.48;6.40;;;;;;;8.20;100.00;101284.88;5016725;28;20068;-87
2023/11/21 04:29:28;;;;;;;9.32;7.18;;;;;;;8.20;100.00;101291.88;5016217;28;20317;-87
2023/11/21 04:31:54;;;;;;;10.10;7.15;;;;;;;8.20;100.00;101292.72;5018242;28;20021;-87
2023/11/21 04:34:19;;;;;;;8.10;6.03;;;;;;;8.21;100.00;101294.44;5036352;28;20227;-87
2023/11/21 04:36:44;;;;;;;9.20;6.32;;;;;;;8.23;100.00;101297.03;5035877;28;20022;-87
2023/11/21 04:39:11;;;;;;;6.97;5.85;;;;;;;8.23;100.00;101297.88;5031488;28;20026;-87
2023/11/21 04:41:39;;;;;;;7.07;6.30;;;;;;;8.25;100.00;101303.91;5028705;28;20044;-87
2023/11/21 04:44:05;;;;;;;7.85;6.47;;;;;;;8.27;100.00;101306.47;5023598;28;20245;-87
2023/11/21 04:46:31;;;;;;;11.48;7.22;;;;;;;8.26;100.00;101303.03;5031594;28;20076;-87
2023/11/21 04:48:56;;;;;;;13.63;7.57;;;;;;;8.30;100.00;101318.63;5034452;28;20033;-87
2023/11/21 04:51:21;;;;;;;7.57;6.07;;;;;;;8.31;100.00;101313.34;5024736;28;20031;-87
2023/11/21 04:53:47;;;;;;;6.90;6.15;;;;;;;8.34;100.00;101326.31;5035262;28;20053;-87
2023/11/21 04:56:12;;;;;;;5.75;5.25;;;;;;;8.36;100.00;101324.53;5021698;28;20203;-87
2023/11/21 04:58:39;;;;;;;6.32;5.60;;;;;;;8.39;100.00;101321.00;5015672;28;20395;-87
2023/11/21 05:01:05;;;;;;;7.28;5.90;;;;;;;8.40;100.00;101336.63;5016037;28;20403;-87
2023/11/21 05:03:31;;;;;;;6.15;5.55;;;;;;;8.42;100.00;101336.59;5015451;28;20264;-87
2023/11/21 05:05:57;;;;;;;7.22;5.13;;;;;;;8.43;100.00;101339.19;5014411;28;20018;-87
2023/11/21 05:08:22;;;;;;;6.90;5.90;;;;;;;8.44;100.00;101342.66;5027947;28;20033;-87
2023/11/21 05:10:48;;;;;;;6.53;5.53;;;;;;;8.43;100.00;101336.56;5034788;28;20037;-87
2023/11/21 05:13:17;;;;;;;6.40;5.75;;;;;;;8.45;100.00;101345.22;5035491;28;20044;-87
2023/11/21 05:15:42;;;;;;;6.53;5.90;;;;;;;8.45;100.00;101349.59;5034963;28;20033;-87
2023/11/21 05:18:07;;;;;;;6.65;5.90;;;;;;;8.46;100.00;101348.72;5035441;28;20036;-87
2023/11/21 05:20:33;;;;;;;6.78;5.93;;;;;;;8.46;100.00;101359.16;5033352;28;20049;-87
2023/11/21 05:22:58;;;;;;;5.97;5.47;;;;;;;8.46;100.00;101356.56;5035241;28;20040;-87
2023/11/21 05:25:24;;;;;;;5.97;5.47;;;;;;;8.47;100.00;101360.84;5031143;28;20121;-87
2023/11/21 05:27:49;;;;;;;9.13;6.68;;;;;;;8.47;100.00;101362.63;5015339;28;20042;-87
2023/11/21 05:30:15;;;;;;;8.07;6.35;;;;;;;8.43;100.00;101364.44;5028668;28;20362;-87
2023/11/21 05:32:43;;;;;;;7.15;6.25;;;;;;;8.40;100.00;101361.84;5019091;28;20104;-87
2023/11/21 05:35:15;;;;;;;5.93;5.40;;;;;;;8.40;100.00;101372.31;5015264;28;20136;-87
2023/11/21 05:37:40;;;;;;;5.43;4.97;;;;;;;8.41;100.00;101371.41;5015074;28;20030;-87
2023/11/21 05:40:07;;;;;;;6.43;5.68;;;;;;;8.41;100.00;101377.50;5026477;28;20056;-87
2023/11/21 05:42:33;;;;;;;7.40;6.70;;;;;;;8.41;100.00;101379.25;5029350;28;20293;-87
2023/11/21 05:44:59;;;;;;;8.38;6.32;;;;;;;8.39;100.00;101384.50;5016176;28;20386;-87
2023/11/21 05:47:26;;;;;;;7.05;6.35;;;;;;;8.39;100.00;101386.25;5023411;28;20037;-88
2023/11/21 05:49:52;;;;;;;7.38;6.07;;;;;;;8.39;100.00;101381.88;5031448;28;20516;-87
2023/11/21 05:52:18;;;;;;;6.95;6.35;;;;;;;8.38;100.00;101385.38;5026918;28;20037;-87
2023/11/21 05:54:43;;;;;;;7.05;5.53;;;;;;;8.39;100.00;101388.88;5014160;28;20057;-87
2023/11/21 05:57:08;;;;;;;7.07;5.75;;;;;;;8.41;100.00;101400.13;5021013;28;20551;-87
2023/11/21 05:59:34;;;;;;;6.90;5.85;;;;;;;8.39;100.00;101400.16;5021165;28;20064;-87
2023/11/21 06:01:59;;;;;;;7.88;6.35;;;;;;;8.38;100.00;101402.81;5020800;28;20044;-87
2023/11/21 06:04:25;;;;;;;6.60;6.00;;;;;;;8.36;100.00;101409.81;5014993;28;20407;-87
2023/11/21 06:06:52;;;;;;;6.43;5.78;;;;;;;8.35;100.00;101418.53;5014643;28;20034;-87
2023/11/21 06:09:18;;;;;;;6.03;5.53;;;;;;;8.34;100.00;101419.44;5033478;28;20089;-87
2023/11/21 06:11:43;;;;;;;6.43;5.75;;;;;;;8.36;100.00;101425.47;5026051;28;20336;-87
2023/11/21 06:14:09;;;;;;;5.53;5.00;;;;;;;8.37;100.00;101420.22;5028888;28;20275;-87
2023/11/21 06:16:35;;;;;;;4.90;4.50;;;;;;;8.39;100.00;101426.25;5024587;28;20237;-87
2023/11/21 06:19:01;;;;;;;5.85;4.72;;;;;;;8.42;100.00;101435.78;5032241;28;20048;-87
2023/11/21 06:21:26;;;;;;;4.88;4.43;;;;;;;8.43;100.00;101435.75;5027019;28;20085;-87
2023/11/21 06:23:52;;;;;;;5.38;4.30;;;;;;;8.45;100.00;101436.59;5017587;28;20326;-87
2023/11/21 06:26:18;;;;;;;4.53;4.13;;;;;;;8.48;100.00;101438.28;5014704;28;20037;-87
2023/11/21 06:28:44;;;;;;;4.07;3.72;;;;;;;8.49;100.00;101434.78;5022818;28;20060;-87
2023/11/21 06:31:10;;;;;;;4.70;4.20;;;;;;;8.52;100.00;101434.72;5025243;28;20293;-87
2023/11/21 06:33:36;;;;;;;4.20;3.80;;;;;;;8.53;100.00;101438.16;5022242;28;20037;-87
2023/11/21 06:36:05;;;;;;;4.35;3.80;;;;;;;8.52;100.00;101454.75;5029995;28;20222;-87
2023/11/21 06:38:31;;;;;;;6.30;4.57;;;;;;;8.49;100.00;101460.88;5029806;28;20048;-88
2023/11/21 06:40:58;;;;;;;5.68;4.15;;;;;;;8.49;100.00;101457.41;5016334;28;20042;-87
2023/11/21 06:43:23;;;;;;;5.68;4.10;;;;;;;8.49;100.00;101453.03;5019663;28;20041;-88
2023/11/21 06:45:49;;;;;;;6.13;3.55;;;;;;;8.48;100.00;101459.16;5028579;28;20336;-87
2023/11/21 06:48:14;;;;;;;5.15;4.00;;;;;;;8.48;100.00;101458.28;5033768;28;20041;-87
2023/11/21 06:50:40;;;;;;;4.05;3.45;;;;;;;8.48;100.00;101469.63;5034046;28;20260;-87
2023/11/21 06:53:07;;;;;;;4.40;3.50;;;;;;;8.45;100.00;101475.75;5033881;28;20037;-87
2023/11/21 06:55:33;;;;;;;3.20;3.00;;;;;;;8.42;100.00;101474.94;5023079;28;20107;-87
2023/11/21 06:57:59;;;;;;;4.03;3.35;;;;;;;8.41;100.00;101486.25;5029595;28;20104;-87
2023/11/21 07:00:25;;;;;;;3.25;2.95;;;;;;;8.38;100.00;101488.94;5021929;28;20026;-87
2023/11/21 07:02:50;;;;;;;3.75;3.45;;;;;;;8.36;100.00;101491.56;5033145;28;20255;-87
2023/11/21 07:05:20;;;;;;;3.10;2.85;;;;;;;8.34;100.00;101493.34;5024273;28;20324;-87
2023/11/21 07:07:46;;;;;;;3.00;2.72;;;;;;;8.34;100.00;101495.13;5026064;28;20029;-87
2023/11/21 07:10:11;;;;;;;4.88;3.42;;;;;;;8.31;100.00;101509.06;5027078;28;20070;-87
2023/11/21 07:12:36;;;;;;;4.00;2.80;;;;;;;8.33;100.00;101503.81;5028187;28;20053;-87
2023/11/21 07:15:05;;;;;;;3.25;2.80;;;;;;;8.35;100.00;101500.31;5027630;28;20041;-87
2023/11/21 07:17:31;;;;;;;7.72;3.92;;;;;;;8.34;100.00;101502.94;5026088;28;20038;-89
2023/11/21 07:19:56;;;;;;;8.57;3.97;;;;;;;8.39;100.00;101519.38;5024543;28;20030;-89
2023/11/21 07:22:22;;;;;;;4.05;3.00;;;;;;;8.45;100.00;101521.88;5026683;28;20340;-88
2023/11/21 07:24:53;;;;;;;4.80;2.70;;;;;;;8.49;100.00;101527.91;5026212;28;20025;-88
2023/11/21 07:27:19;;;;;;;10.82;3.85;;;;;;;8.50;100.00;101537.47;5026328;28;20360;-88
2023/11/21 07:29:44;;;;;;;8.38;3.58;;;;;;;8.52;100.00;101536.53;5025114;28;20025;-88
2023/11/21 07:32:10;;;;;;;7.15;3.85;;;;;;;8.55;100.00;101543.41;5026335;28;20061;-88
2023/11/21 07:34:36;;;;;;;7.15;3.80;;;;;;;8.57;100.00;101547.72;5024330;28;20044;-88
2023/11/21 07:37:02;;;;;;;9.65;3.92;;;;;;;8.61;100.00;101548.53;5023560;28;20065;-87
2023/11/21 07:39:28;;;;;;;6.20;4.03;;;;;;;8.65;100.00;101545.81;5027365;28;20045;-88
2023/11/21 07:41:54;;;;;;;11.80;4.47;;;;;;;8.67;100.00;101555.38;5025888;28;20229;-88
2023/11/21 07:44:19;;;;;;;18.25;4.38;;;;;;;8.70;100.00;101564.00;5027060;28;20037;-87
2023/11/21 07:46:45;;;;;;;14.50;4.07;;;;;;;8.71;100.00;101557.88;5026111;28;20295;-88
2023/11/21 07:49:11;;;;;;;13.80;4.63;;;;;;;8.74;100.00;101570.03;5024603;28;20038;-87
2023/11/21 07:51:37;;;;;;;6.93;3.45;;;;;;;8.76;100.00;101569.06;5026856;28;20713;-88
2023/11/21 07:54:02;;;;;;;13.77;5.03;;;;;;;8.78;100.00;101574.28;5027683;28;20100;-87
2023/11/21 07:56:28;;;;;;;10.82;3.63;;;;;;;8.79;100.00;101578.63;5035926;28;20363;-87
2023/11/21 07:58:54;;;;;;;12.57;3.47;;;;;;;8.79;100.00;101576.84;5031952;28;20364;-87
2023/11/21 08:01:19;;;;;;;9.57;3.85;;;;;;;8.83;100.00;101580.25;5029070;28;20454;-87
2023/11/21 08:03:44;;;;;;;7.50;4.10;;;;;;;8.88;100.00;101590.59;5035599;28;20054;-87
2023/11/21 08:06:10;;;;;;;7.70;3.60;;;;;;;8.89;100.00;101594.94;5024964;28;20247;-87
2023/11/21 08:08:35;;;;;;;9.52;4.45;;;;;;;8.89;100.00;101603.63;5030463;28;20037;-87
2023/11/21 08:11:01;;;;;;;7.28;4.65;;;;;;;8.92;100.00;101598.34;5023158;28;20025;-87
2023/11/21 08:13:29;;;;;;;10.98;4.85;;;;;;;8.95;100.00;101600.91;5027206;28;20328;-87
2023/11/21 08:15:56;;;;;;;9.05;3.97;;;;;;;8.96;100.00;101607.84;5023740;28;20013;-87
2023/11/21 08:18:21;;;;;;;10.07;4.32;;;;;;;8.96;100.00;101620.91;5022240;28;20041;-88
2023/11/21 08:20:47;;;;;;;17.17;4.45;;;;;;;8.98;100.00;101620.88;5026601;28;20321;-88
2023/11/21 08:23:17;;;;;;;9.93;4.78;;;;;;;8.99;100.00;101612.16;5021775;28;20022;-87
2023/11/21 08:25:44;;;;;;;10.30;4.35;;;;;;;9.04;100.00;101620.75;5023466;28;20026;-87
2023/11/21 08:28:09;;;;;;;14.13;4.95;;;;;;;9.03;100.00;101619.88;5022222;28;20033;-87
2023/11/21 08:30:35;;;;;;;21.88;4.75;;;;;;;9.06;100.00;101618.97;5024205;28;20041;-87
2023/11/21 08:33:00;;;;;;;12.20;5.07;;;;;;;9.09;100.00;101612.78;5032758;28;20036;-87
2023/11/21 08:35:26;;;;;;;11.93;4.43;;;;;;;9.10;100.00;101611.91;5028825;28;20044;-87
2023/11/21 08:37:55;;;;;;;9.23;4.88;;;;;;;9.11;100.00;101622.31;5024323;28;20283;-87
2023/11/21 08:40:21;;;;;;;7.72;4.60;;;;;;;9.14;100.00;101624.00;5023378;28;20175;-87
2023/11/21 08:42:47;;;;;;;9.93;4.00;;;;;;;9.13;100.00;101620.53;5023015;28;20025;-87
2023/11/21 08:45:17;;;;;;;8.75;3.75;;;;;;;9.16;100.00;101617.00;5025055;28;20028;-88
2023/11/21 08:47:43;;;;;;;13.48;4.50;;;;;;;9.19;100.00;101619.53;5021765;28;20312;-87
2023/11/21 08:50:09;;;;;;;7.90;3.70;;;;;;;9.22;100.00;101612.50;5023668;28;20029;-87
2023/11/21 08:52:36;;;;;;;9.38;4.07;;;;;;;9.29;100.00;101625.41;5027088;28;20297;-87
2023/11/21 08:55:07;;;;;;;7.30;3.92;;;;;;;9.31;100.00;101623.63;5027516;28;20107;-88
2023/11/21 08:57:36;;;;;;;8.10;3.83;;;;;;;9.32;100.00;101620.97;5024324;28;20048;-87
2023/11/21 09:00:10;;;;;;;6.97;3.97;;;;;;;9.33;100.00;101632.28;5031489;28;20044;-87
2023/11/21 09:02:37;;;;;;;8.73;4.10;;;;;;;9.33;100.00;101643.63;5025921;28;20037;-87
2023/11/21 09:05:03;;;;;;;4.90;3.40;;;;;;;9.35;100.00;101651.41;5026961;28;20104;-88
2023/11/21 09:07:29;;;;;;;6.20;4.35;;;;;;;9.36;100.00;101650.53;5022301;28;20046;-87
2023/11/21 09:09:54;;;;;;;10.02;4.55;;;;;;;9.35;100.00;101659.25;5025137;28;20053;-87
2023/11/21 09:12:20;;;;;;;5.47;3.97;;;;;;;9.38;100.00;101673.09;5026865;28;20267;-87
2023/11/21 09:14:46;;;;;;;13.50;4.45;;;;;;;9.37;100.00;101675.78;5022160;28;20573;-87
2023/11/21 09:17:11;;;;;;;8.00;4.00;;;;;;;9.38;100.00;101667.88;5027657;28;20072;-87
2023/11/21 09:19:38;;;;;;;10.95;4.90;;;;;;;9.39;100.00;101668.75;5023038;28;20053;-87
2023/11/21 09:22:04;;;;;;;6.07;4.60;;;;;;;9.38;100.00;101677.50;5030727;28;20052;-87
2023/11/21 09:24:34;;;;;;;8.88;4.72;;;;;;;9.38;100.00;101680.97;5028605;28;20385;-87
2023/11/21 09:26:59;;;;;;;4.63;3.90;;;;;;;9.41;100.00;101683.50;5019484;28;20133;-87
2023/11/21 09:29:26;;;;;;;10.68;5.05;;;;;;;9.41;100.00;101687.88;5026755;28;20042;-87
2023/11/21 09:31:51;;;;;;;7.30;4.85;;;;;;;9.43;100.00;101703.53;5019918;28;20305;-87
2023/11/21 09:34:17;;;;;;;12.73;5.22;;;;;;;9.41;100.00;101693.13;5034147;28;20110;-88
2023/11/21 09:36:46;;;;;;;10.80;5.78;;;;;;;9.41;100.00;101703.56;5034251;28;20034;-87
2023/11/21 09:39:14;;;;;;;9.00;5.00;;;;;;;9.41;100.00;101703.56;5025238;28;20088;-87
2023/11/21 09:41:56;;;;;;;8.57;6.00;;;;;;;9.42;100.00;101710.50;5025435;28;20267;-87
2023/11/21 09:44:48;;;;;;;10.20;6.50;;;;;;;9.43;100.00;101716.63;5021385;28;20324;-87
2023/11/21 09:47:15;;;;;;;15.13;7.93;;;;;;;9.43;100.00;101724.47;5029914;28;20275;-87
2023/11/21 09:49:47;;;;;;;9.93;6.63;;;;;;;9.44;100.00;101728.78;5029016;28;20029;-87
2023/11/21 09:52:25;;;;;;;11.75;7.07;;;;;;;9.44;100.00;101739.25;5028349;28;20037;-87
2023/11/21 09:54:53;;;;;;;8.82;7.03;;;;;;;9.45;100.00;101736.59;5031225;28;20120;-87
2023/11/21 09:57:21;;;;;;;17.17;7.20;;;;;;;9.47;100.00;101747.03;5034581;28;20067;-87
2023/11/21 09:59:50;;;;;;;15.20;7.45;;;;;;;9.46;100.00;101758.38;5025679;28;20068;-87
2023/11/21 10:02:18;;;;;;;11.95;6.55;;;;;;;9.44;100.00;101763.66;5025427;28;20087;-87
2023/11/21 10:04:45;;;;;;;12.13;6.97;;;;;;;9.44;100.00;101762.78;5024683;28;20470;-87
2023/11/21 10:07:12;;;;;;;8.55;6.80;;;;;;;9.46;100.00;101769.72;5023794;28;20557;-87
2023/11/21 10:09:38;;;;;;;13.95;8.18;;;;;;;9.46;100.00;101774.06;5021674;28;20037;-87
2023/11/21 10:12:06;;;;;;;8.43;7.22;;;;;;;9.46;100.00;101771.44;5025710;28;20101;-87
2023/11/21 10:14:33;;;;;;;13.95;7.90;;;;;;;9.47;100.00;101781.88;5022499;28;20101;-87
2023/11/21 10:16:58;;;;;;;11.18;7.75;;;;;;;9.47;100.00;101779.25;5023500;28;20041;-87
2023/11/21 10:19:24;;;;;;;7.97;6.38;;;;;;;9.50;100.00;101781.81;5030321;28;20213;-87
2023/11/21 10:21:51;;;;;;;13.50;7.07;;;;;;;9.48;100.00;101787.94;5032111;28;20033;-87
2023/11/21 10:24:18;;;;;;;11.43;7.28;;;;;;;9.49;100.00;101797.53;5025162;28;20237;-88
2023/11/21 10:26:45;;;;;;;7.03;6.32;;;;;;;9.49;100.00;101800.16;5031327;28;20280;-88
2023/11/21 10:29:16;;;;;;;8.35;6.50;;;;;;;9.50;100.00;101802.72;5038527;28;20314;-88
2023/11/21 10:31:42;;;;;;;12.25;7.25;;;;;;;9.47;100.00;101805.41;5028068;28;20328;-87
2023/11/21 10:34:18;;;;;;;9.48;8.32;;;;;;;9.48;100.00;101809.75;5036828;28;20083;-87
2023/11/21 10:36:44;;;;;;;14.48;9.00;;;;;;;9.51;100.00;101814.03;5027592;28;20029;-87
2023/11/21 10:39:17;;;;;;;12.95;8.15;;;;;;;9.51;100.00;101819.28;5033560;28;20116;-87
2023/11/21 10:41:45;;;;;;;7.40;6.25;;;;;;;9.46;100.00;101829.84;5027200;28;20033;-88
2023/11/21 10:44:11;;;;;;;6.87;5.53;;;;;;;9.48;100.00;101835.91;5037591;28;20037;-88
2023/11/21 10:46:36;;;;;;;8.07;5.63;;;;;;;9.48;100.00;101833.28;5029988;28;20596;-88
2023/11/21 10:49:02;;;;;;;10.32;5.05;;;;;;;9.46;100.00;101831.56;5029393;28;20033;-87
2023/11/21 10:51:28;;;;;;;13.77;5.90;;;;;;;9.44;100.00;101838.59;5023563;28;20059;-88
2023/11/21 10:53:54;;;;;;;12.00;6.85;;;;;;;9.45;100.00;101846.41;5028033;28;20033;-87
2023/11/21 10:56:22;;;;;;;10.43;7.03;;;;;;;9.45;100.00;101840.31;5031975;28;20053;-88
2023/11/21 10:58:49;;;;;;;11.50;6.90;;;;;;;9.45;100.00;101849.03;5034549;28;20076;-87
2023/11/21 11:01:17;;;;;;;12.13;8.25;;;;;;;9.44;100.00;101849.06;5021450;28;20041;-87
2023/11/21 11:03:44;;;;;;;;;;;;;;;9.42;100.00;101841.22;5037313;28;20415;-87
2023/11/21 11:06:11;;;;;;;12.43;6.95;;;;;;;9.40;100.00;101848.25;5034420;28;19944;-87
2023/11/21 11:08:37;;;;;;;12.23;7.30;;;;;;;9.37;100.00;101840.50;5027260;28;20034;-87
2023/11/21 11:11:07;;;;;;;13.80;7.40;;;;;;;9.35;100.00;101850.09;5026811;28;20033;-87
2023/11/21 11:13:33;;;;;;;15.90;8.50;;;;;;;9.35;100.00;101848.34;5035089;28;20037;-87
2023/11/21 11:16:03;;;;;;;13.73;8.73;;;;;;;9.33;100.00;101850.16;5029372;28;20073;-87
2023/11/21 11:18:29;;;;;;;11.10;7.93;;;;;;;9.33;100.00;101849.25;5027341;28;20357;-87
2023/11/21 11:21:02;;;;;;;11.40;7.90;;;;;;;9.32;100.00;101851.03;5023066;28;20047;-87
2023/11/21 11:23:48;;;;;;;12.55;8.32;;;;;;;9.31;100.00;101857.13;5035719;28;20037;-87